sensor_id;sensor_type;location;lat;lon;timestamp;pressure;altitude;pressure_sealevel;temperature;humidity
9935;BME280;5006;41.828;23.478;2023-02-19T00:00:51;90627.50;;;15.40;42.61
9935;BME280;5006;41.828;23.478;2023-02-19T00:01:55;90627.72;;;15.52;42.37
9935;BME280;5006;41.828;23.478;2023-02-19T00:03:01;90614.88;;;15.00;42.20
9935;BME280;5006;41.828;23.478;2023-02-19T00:04:10;90620.25;;;15.04;43.15
9935;BME280;5006;41.828;23.478;2023-02-19T00:05:16;90627.75;;;14.56;44.80
9935;BME280;5006;41.828;23.478;2023-02-19T00:06:22;90621.84;;;15.27;43.38
9935;BME280;5006;41.828;23.478;2023-02-19T00:07:29;90624.22;;;15.78;42.76
9935;BME280;5006;41.828;23.478;2023-02-19T00:08:35;90623.69;;;15.08;43.42
9935;BME280;5006;41.828;23.478;2023-02-19T00:09:41;90621.84;;;15.27;43.45
9935;BME280;5006;41.828;23.478;2023-02-19T00:10:46;90625.56;;;15.40;42.98
9935;BME280;5006;41.828;23.478;2023-02-19T00:11:51;90619.19;;;15.24;43.23
9935;BME280;5006;41.828;23.478;2023-02-19T00:12:57;90617.09;;;15.09;43.60
9935;BME280;5006;41.828;23.478;2023-02-19T00:14:04;90609.31;;;15.14;43.46
9935;BME280;5006;41.828;23.478;2023-02-19T00:15:09;90609.44;;;14.74;43.99
9935;BME280;5006;41.828;23.478;2023-02-19T00:16:15;90609.19;;;13.84;45.60
9935;BME280;5006;41.828;23.478;2023-02-19T00:17:21;90611.59;;;14.19;45.21
9935;BME280;5006;41.828;23.478;2023-02-19T00:18:27;90602.81;;;15.08;42.67
9935;BME280;5006;41.828;23.478;2023-02-19T00:19:32;90616.19;;;14.18;44.74
9935;BME280;5006;41.828;23.478;2023-02-19T00:20:37;90601.63;;;14.83;44.23
9935;BME280;5006;41.828;23.478;2023-02-19T00:21:42;90601.81;;;15.25;43.06
9935;BME280;5006;41.828;23.478;2023-02-19T00:22:48;90601.13;;;15.17;43.12
9935;BME280;5006;41.828;23.478;2023-02-19T00:23:54;90610.44;;;15.46;43.01
9935;BME280;5006;41.828;23.478;2023-02-19T00:25:01;90615.03;;;14.16;45.39
9935;BME280;5006;41.828;23.478;2023-02-19T00:26:07;90600.78;;;15.15;43.99
9935;BME280;5006;41.828;23.478;2023-02-19T00:27:15;90612.19;;;15.56;42.88
9935;BME280;5006;41.828;23.478;2023-02-19T00:28:20;90614.13;;;15.00;43.54
9935;BME280;5006;41.828;23.478;2023-02-19T00:29:27;90617.75;;;15.46;43.18
9935;BME280;5006;41.828;23.478;2023-02-19T00:30:33;90614.81;;;15.07;43.29
9935;BME280;5006;41.828;23.478;2023-02-19T00:31:37;90611.50;;;14.63;44.38
9935;BME280;5006;41.828;23.478;2023-02-19T00:32:49;90620.75;;;14.62;45.07
9935;BME280;5006;41.828;23.478;2023-02-19T00:33:55;90613.53;;;15.15;44.06
9935;BME280;5006;41.828;23.478;2023-02-19T00:35:02;90610.44;;;14.87;44.24
9935;BME280;5006;41.828;23.478;2023-02-19T00:36:06;90614.03;;;15.07;43.85
9935;BME280;5006;41.828;23.478;2023-02-19T00:37:12;90618.22;;;14.81;44.66
9935;BME280;5006;41.828;23.478;2023-02-19T00:38:17;90613.59;;;14.82;44.63
9935;BME280;5006;41.828;23.478;2023-02-19T00:39:23;90608.94;;;14.49;44.94
9935;BME280;5006;41.828;23.478;2023-02-19T00:40:28;90616.69;;;14.80;44.30
9935;BME280;5006;41.828;23.478;2023-02-19T00:41:33;90605.44;;;14.85;44.32
9935;BME280;5006;41.828;23.478;2023-02-19T00:42:40;90609.66;;;14.53;44.82
9935;BME280;5006;41.828;23.478;2023-02-19T00:43:49;90609.72;;;14.09;45.55
9935;BME280;5006;41.828;23.478;2023-02-19T00:44:57;90613.00;;;13.86;45.89
9935;BME280;5006;41.828;23.478;2023-02-19T00:46:03;90612.69;;;13.81;46.33
9935;BME280;5006;41.828;23.478;2023-02-19T00:47:08;90594.13;;;14.94;43.96
9935;BME280;5006;41.828;23.478;2023-02-19T00:48:16;90602.28;;;15.20;43.35
9935;BME280;5006;41.828;23.478;2023-02-19T00:49:22;90598.09;;;14.19;45.38
9935;BME280;5006;41.828;23.478;2023-02-19T00:50:28;90597.69;;;13.29;46.54
9935;BME280;5006;41.828;23.478;2023-02-19T00:51:35;90601.13;;;13.26;47.00
9935;BME280;5006;41.828;23.478;2023-02-19T00:52:41;90601.66;;;14.05;45.86
9935;BME280;5006;41.828;23.478;2023-02-19T00:53:46;90594.47;;;14.66;44.19
9935;BME280;5006;41.828;23.478;2023-02-19T00:54:52;90589.41;;;14.71;44.48
9935;BME280;5006;41.828;23.478;2023-02-19T00:55:58;90590.97;;;14.35;44.69
9935;BME280;5006;41.828;23.478;2023-02-19T00:57:02;90583.50;;;14.50;44.49
9935;BME280;5006;41.828;23.478;2023-02-19T00:58:09;90591.53;;;14.57;44.55
9935;BME280;5006;41.828;23.478;2023-02-19T00:59:14;90592.06;;;14.01;45.76
9935;BME280;5006;41.828;23.478;2023-02-19T01:00:22;90581.19;;;14.11;45.30
9935;BME280;5006;41.828;23.478;2023-02-19T01:01:27;90576.53;;;14.15;45.53
9935;BME280;5006;41.828;23.478;2023-02-19T01:02:32;90579.91;;;13.35;47.51
9935;BME280;5006;41.828;23.478;2023-02-19T01:03:38;90574.50;;;13.42;47.00
9935;BME280;5006;41.828;23.478;2023-02-19T01:04:44;90570.19;;;13.51;47.26
9935;BME280;5006;41.828;23.478;2023-02-19T01:05:49;90563.75;;;13.82;46.30
9935;BME280;5006;41.828;23.478;2023-02-19T01:06:54;90565.44;;;13.15;47.71
9935;BME280;5006;41.828;23.478;2023-02-19T01:08:00;90565.13;;;13.06;48.31
9935;BME280;5006;41.828;23.478;2023-02-19T01:09:05;90559.72;;;14.01;45.98
9935;BME280;5006;41.828;23.478;2023-02-19T01:10:11;90560.72;;;14.17;45.83
9935;BME280;5006;41.828;23.478;2023-02-19T01:11:17;90562.59;;;14.57;45.18
9935;BME280;5006;41.828;23.478;2023-02-19T01:12:24;90565.38;;;14.13;45.32
9935;BME280;5006;41.828;23.478;2023-02-19T01:13:29;90565.59;;;14.29;45.29
9935;BME280;5006;41.828;23.478;2023-02-19T01:14:35;90567.97;;;13.36;47.16
9935;BME280;5006;41.828;23.478;2023-02-19T01:15:41;90566.47;;;14.16;46.05
9935;BME280;5006;41.828;23.478;2023-02-19T01:16:47;90565.72;;;14.19;45.99
9935;BME280;5006;41.828;23.478;2023-02-19T01:17:52;90566.81;;;14.25;45.34
9935;BME280;5006;41.828;23.478;2023-02-19T01:18:58;90560.72;;;14.51;45.40
9935;BME280;5006;41.828;23.478;2023-02-19T01:20:04;90571.66;;;14.00;45.89
9935;BME280;5006;41.828;23.478;2023-02-19T01:21:12;90558.34;;;14.23;45.50
9935;BME280;5006;41.828;23.478;2023-02-19T01:22:18;90566.34;;;14.30;45.06
9935;BME280;5006;41.828;23.478;2023-02-19T01:23:23;90568.75;;;14.58;45.15
9935;BME280;5006;41.828;23.478;2023-02-19T01:24:28;90575.16;;;14.37;45.45
9935;BME280;5006;41.828;23.478;2023-02-19T01:25:37;90576.91;;;14.14;45.42
9935;BME280;5006;41.828;23.478;2023-02-19T01:26:42;90568.56;;;13.57;45.84
9935;BME280;5006;41.828;23.478;2023-02-19T01:27:48;90576.13;;;14.17;45.37
9935;BME280;5006;41.828;23.478;2023-02-19T01:28:54;90575.75;;;14.15;45.33
9935;BME280;5006;41.828;23.478;2023-02-19T01:30:01;90571.00;;;14.63;44.12
9935;BME280;5006;41.828;23.478;2023-02-19T01:31:11;90575.56;;;13.92;45.40
9935;BME280;5006;41.828;23.478;2023-02-19T01:32:18;90560.50;;;14.38;44.96
9935;BME280;5006;41.828;23.478;2023-02-19T01:33:23;90571.84;;;14.23;44.82
9935;BME280;5006;41.828;23.478;2023-02-19T01:34:29;90560.59;;;14.61;44.25
9935;BME280;5006;41.828;23.478;2023-02-19T01:35:37;90570.22;;;14.62;44.49
9935;BME280;5006;41.828;23.478;2023-02-19T01:36:43;90571.00;;;13.45;46.49
9935;BME280;5006;41.828;23.478;2023-02-19T01:37:48;90570.78;;;14.13;45.74
9935;BME280;5006;41.828;23.478;2023-02-19T01:38:53;90562.25;;;14.18;45.08
9935;BME280;5006;41.828;23.478;2023-02-19T01:39:58;90577.69;;;14.14;45.51
9935;BME280;5006;41.828;23.478;2023-02-19T01:41:06;90565.31;;;13.80;46.33
9935;BME280;5006;41.828;23.478;2023-02-19T01:42:14;90560.66;;;13.84;46.13
9935;BME280;5006;41.828;23.478;2023-02-19T01:43:21;90560.63;;;13.40;47.03
9935;BME280;5006;41.828;23.478;2023-02-19T01:46:10;90543.56;;;13.57;47.24
9935;BME280;5006;41.828;23.478;2023-02-19T01:47:16;90552.38;;;13.64;46.23
9935;BME280;5006;41.828;23.478;2023-02-19T01:48:25;90546.97;;;13.17;47.95
9935;BME280;5006;41.828;23.478;2023-02-19T01:49:34;90542.81;;;13.02;47.50
9935;BME280;5006;41.828;23.478;2023-02-19T01:50:44;90554.81;;;12.98;48.44
9935;BME280;5006;41.828;23.478;2023-02-19T01:51:53;90540.81;;;13.64;46.80
9935;BME280;5006;41.828;23.478;2023-02-19T01:53:01;90553.78;;;13.32;47.14
9935;BME280;5006;41.828;23.478;2023-02-19T01:54:10;90552.31;;;12.56;49.79
9935;BME280;5006;41.828;23.478;2023-02-19T01:55:17;90548.78;;;12.66;49.37
9935;BME280;5006;41.828;23.478;2023-02-19T01:56:24;90548.25;;;13.90;47.00
9935;BME280;5006;41.828;23.478;2023-02-19T01:57:33;90552.25;;;14.15;45.80
9935;BME280;5006;41.828;23.478;2023-02-19T01:58:40;90551.72;;;13.94;46.00
9935;BME280;5006;41.828;23.478;2023-02-19T01:59:48;90546.69;;;14.33;46.07
9935;BME280;5006;41.828;23.478;2023-02-19T02:00:56;90553.53;;;13.63;46.73
9935;BME280;5006;41.828;23.478;2023-02-19T02:02:03;90546.44;;;13.80;46.47
9935;BME280;5006;41.828;23.478;2023-02-19T02:03:09;90551.44;;;14.22;46.31
9935;BME280;5006;41.828;23.478;2023-02-19T02:04:16;90557.06;;;13.57;47.98
9935;BME280;5006;41.828;23.478;2023-02-19T02:05:34;90544.63;;;13.66;46.95
9935;BME280;5006;41.828;23.478;2023-02-19T02:06:44;90552.03;;;13.59;47.34
9935;BME280;5006;41.828;23.478;2023-02-19T02:07:52;90550.13;;;13.96;46.28
9935;BME280;5006;41.828;23.478;2023-02-19T02:09:16;90551.63;;;14.38;45.90
9935;BME280;5006;41.828;23.478;2023-02-19T02:10:40;90552.81;;;13.56;46.42
9935;BME280;5006;41.828;23.478;2023-02-19T02:11:47;90551.63;;;13.60;46.75
9935;BME280;5006;41.828;23.478;2023-02-19T02:12:56;90545.31;;;14.14;45.96
9935;BME280;5006;41.828;23.478;2023-02-19T02:14:02;90543.22;;;14.32;45.63
9935;BME280;5006;41.828;23.478;2023-02-19T02:15:09;90547.25;;;14.14;46.01
9935;BME280;5006;41.828;23.478;2023-02-19T02:16:21;90544.47;;;14.24;45.75
9935;BME280;5006;41.828;23.478;2023-02-19T02:17:34;90550.50;;;14.35;45.04
9935;BME280;5006;41.828;23.478;2023-02-19T02:18:53;90540.47;;;13.99;46.19
9935;BME280;5006;41.828;23.478;2023-02-19T02:21:52;90549.41;;;13.92;45.82
9935;BME280;5006;41.828;23.478;2023-02-19T02:23:08;90546.53;;;14.10;45.88
9935;BME280;5006;41.828;23.478;2023-02-19T02:24:49;90532.53;;;14.55;44.85
9935;BME280;5006;41.828;23.478;2023-02-19T02:26:09;90533.13;;;14.70;44.78
9935;BME280;5006;41.828;23.478;2023-02-19T02:27:38;90534.72;;;14.34;45.01
9935;BME280;5006;41.828;23.478;2023-02-19T02:29:11;90527.88;;;14.56;44.72
9935;BME280;5006;41.828;23.478;2023-02-19T02:30:28;90523.06;;;14.44;45.50
9935;BME280;5006;41.828;23.478;2023-02-19T02:31:38;90530.34;;;14.10;46.47
9935;BME280;5006;41.828;23.478;2023-02-19T02:32:52;90522.09;;;14.57;45.14
9935;BME280;5006;41.828;23.478;2023-02-19T02:34:03;90523.34;;;14.49;44.94
9935;BME280;5006;41.828;23.478;2023-02-19T02:35:12;90529.03;;;14.25;45.41
9935;BME280;5006;41.828;23.478;2023-02-19T02:36:26;90533.63;;;14.91;44.35
9935;BME280;5006;41.828;23.478;2023-02-19T02:37:36;90529.56;;;14.09;45.58
9935;BME280;5006;41.828;23.478;2023-02-19T02:38:43;90538.50;;;14.03;46.48
9935;BME280;5006;41.828;23.478;2023-02-19T02:39:51;90537.06;;;14.32;45.29
9935;BME280;5006;41.828;23.478;2023-02-19T02:40:57;90538.09;;;13.67;46.49
9935;BME280;5006;41.828;23.478;2023-02-19T02:42:03;90534.94;;;14.13;45.84
9935;BME280;5006;41.828;23.478;2023-02-19T02:43:35;90532.75;;;14.68;44.27
9935;BME280;5006;41.828;23.478;2023-02-19T02:44:42;90538.69;;;14.56;45.13
9935;BME280;5006;41.828;23.478;2023-02-19T02:46:11;90540.13;;;14.34;44.68
9935;BME280;5006;41.828;23.478;2023-02-19T02:47:18;90538.78;;;15.09;43.82
9935;BME280;5006;41.828;23.478;2023-02-19T02:48:40;90535.34;;;15.05;43.74
9935;BME280;5006;41.828;23.478;2023-02-19T02:49:48;90541.94;;;14.74;43.98
9935;BME280;5006;41.828;23.478;2023-02-19T02:51:14;90535.19;;;14.59;44.46
9935;BME280;5006;41.828;23.478;2023-02-19T02:52:48;90538.31;;;14.54;44.53
9935;BME280;5006;41.828;23.478;2023-02-19T02:54:12;90546.44;;;14.54;45.35
9935;BME280;5006;41.828;23.478;2023-02-19T02:55:43;90537.75;;;14.39;45.44
9935;BME280;5006;41.828;23.478;2023-02-19T02:56:49;90541.66;;;14.95;44.66
9935;BME280;5006;41.828;23.478;2023-02-19T02:57:56;90538.13;;;14.71;44.69
9935;BME280;5006;41.828;23.478;2023-02-19T02:59:03;90530.59;;;14.56;44.70
9935;BME280;5006;41.828;23.478;2023-02-19T03:00:12;90531.56;;;14.02;46.31
9935;BME280;5006;41.828;23.478;2023-02-19T03:01:22;90534.88;;;13.83;46.67
9935;BME280;5006;41.828;23.478;2023-02-19T03:02:47;90531.75;;;14.25;45.98
9935;BME280;5006;41.828;23.478;2023-02-19T03:03:56;90528.38;;;14.47;45.37
9935;BME280;5006;41.828;23.478;2023-02-19T03:05:06;90531.81;;;14.81;44.81
9935;BME280;5006;41.828;23.478;2023-02-19T03:06:34;90532.72;;;14.41;44.89
9935;BME280;5006;41.828;23.478;2023-02-19T03:07:44;90535.81;;;14.40;45.10
9935;BME280;5006;41.828;23.478;2023-02-19T03:08:54;90536.69;;;14.30;44.92
9935;BME280;5006;41.828;23.478;2023-02-19T03:10:05;90541.16;;;14.43;44.57
9935;BME280;5006;41.828;23.478;2023-02-19T03:11:11;90544.69;;;14.70;44.75
9935;BME280;5006;41.828;23.478;2023-02-19T03:12:36;90554.28;;;13.13;47.00
9935;BME280;5006;41.828;23.478;2023-02-19T03:14:05;90542.13;;;12.91;47.68
9935;BME280;5006;41.828;23.478;2023-02-19T03:15:39;90548.38;;;14.20;45.48
9935;BME280;5006;41.828;23.478;2023-02-19T03:17:23;90544.66;;;14.74;43.83
9935;BME280;5006;41.828;23.478;2023-02-19T03:18:52;90542.81;;;14.67;44.46
9935;BME280;5006;41.828;23.478;2023-02-19T03:20:20;90544.97;;;13.72;45.47
9935;BME280;5006;41.828;23.478;2023-02-19T03:21:27;90541.63;;;13.98;45.73
9935;BME280;5006;41.828;23.478;2023-02-19T03:22:35;90549.44;;;13.85;46.08
9935;BME280;5006;41.828;23.478;2023-02-19T03:23:41;90541.72;;;14.28;45.23
9935;BME280;5006;41.828;23.478;2023-02-19T03:25:13;90544.63;;;13.70;46.78
9935;BME280;5006;41.828;23.478;2023-02-19T03:26:40;90544.59;;;13.26;47.10
9935;BME280;5006;41.828;23.478;2023-02-19T03:27:46;90550.25;;;13.82;45.95
9935;BME280;5006;41.828;23.478;2023-02-19T03:28:54;90540.97;;;13.87;46.19
9935;BME280;5006;41.828;23.478;2023-02-19T03:30:23;90540.69;;;14.15;45.55
9935;BME280;5006;41.828;23.478;2023-02-19T03:31:30;90544.84;;;14.26;45.39
9935;BME280;5006;41.828;23.478;2023-02-19T03:32:41;90550.50;;;14.35;44.92
9935;BME280;5006;41.828;23.478;2023-02-19T03:33:52;90539.97;;;14.11;45.12
9935;BME280;5006;41.828;23.478;2023-02-19T03:35:00;90541.03;;;14.54;44.85
9935;BME280;5006;41.828;23.478;2023-02-19T03:36:12;90553.28;;;14.28;45.03
9935;BME280;5006;41.828;23.478;2023-02-19T03:37:23;90543.75;;;14.84;44.24
9935;BME280;5006;41.828;23.478;2023-02-19T03:38:37;90544.91;;;14.53;44.02
9935;BME280;5006;41.828;23.478;2023-02-19T03:39:43;90550.47;;;15.25;43.22
9935;BME280;5006;41.828;23.478;2023-02-19T03:40:55;90555.41;;;15.33;42.93
9935;BME280;5006;41.828;23.478;2023-02-19T03:42:07;90553.38;;;15.64;42.60
9935;BME280;5006;41.828;23.478;2023-02-19T03:43:20;90555.41;;;15.33;42.59
9935;BME280;5006;41.828;23.478;2023-02-19T03:44:36;90561.28;;;15.78;42.06
9935;BME280;5006;41.828;23.478;2023-02-19T03:45:50;90560.06;;;16.02;41.80
9935;BME280;5006;41.828;23.478;2023-02-19T03:47:03;90567.50;;;15.52;42.27
9935;BME280;5006;41.828;23.478;2023-02-19T03:48:21;90560.81;;;15.33;42.37
9935;BME280;5006;41.828;23.478;2023-02-19T03:49:33;90561.22;;;14.72;43.29
9935;BME280;5006;41.828;23.478;2023-02-19T03:50:46;90558.94;;;15.01;43.10
9935;BME280;5006;41.828;23.478;2023-02-19T03:51:56;90557.81;;;15.24;42.90
9935;BME280;5006;41.828;23.478;2023-02-19T03:53:08;90558.66;;;15.21;43.05
9935;BME280;5006;41.828;23.478;2023-02-19T03:54:20;90556.81;;;15.41;42.78
9935;BME280;5006;41.828;23.478;2023-02-19T03:55:31;90555.00;;;15.35;42.98
9935;BME280;5006;41.828;23.478;2023-02-19T03:56:46;90558.78;;;14.85;43.47
9935;BME280;5006;41.828;23.478;2023-02-19T03:57:56;90547.34;;;15.00;43.50
9935;BME280;5006;41.828;23.478;2023-02-19T03:59:09;90547.88;;;14.62;43.90
9935;BME280;5006;41.828;23.478;2023-02-19T04:00:17;90553.25;;;14.32;44.97
9935;BME280;5006;41.828;23.478;2023-02-19T04:01:26;90551.31;;;14.96;43.59
9935;BME280;5006;41.828;23.478;2023-02-19T04:02:36;90554.84;;;14.89;43.68
9935;BME280;5006;41.828;23.478;2023-02-19T04:03:48;90551.53;;;15.05;43.55
9935;BME280;5006;41.828;23.478;2023-02-19T04:05:01;90557.19;;;14.87;43.41
9935;BME280;5006;41.828;23.478;2023-02-19T04:06:11;90547.88;;;14.92;43.41
9935;BME280;5006;41.828;23.478;2023-02-19T04:07:17;90558.81;;;14.51;44.42
9935;BME280;5006;41.828;23.478;2023-02-19T04:08:23;90548.47;;;15.03;43.39
9935;BME280;5006;41.828;23.478;2023-02-19T04:09:36;90562.41;;;14.01;45.31
9935;BME280;5006;41.828;23.478;2023-02-19T04:10:49;90546.78;;;14.56;44.27
9935;BME280;5006;41.828;23.478;2023-02-19T04:11:56;90545.16;;;14.32;45.09
9935;BME280;5006;41.828;23.478;2023-02-19T04:13:06;90552.03;;;14.36;44.67
9935;BME280;5006;41.828;23.478;2023-02-19T04:14:18;90547.06;;;14.35;44.85
9935;BME280;5006;41.828;23.478;2023-02-19T04:15:29;90547.59;;;14.19;44.67
9935;BME280;5006;41.828;23.478;2023-02-19T04:16:38;90548.88;;;14.45;44.14
9935;BME280;5006;41.828;23.478;2023-02-19T04:17:49;90543.41;;;14.82;43.30
9935;BME280;5006;41.828;23.478;2023-02-19T04:19:02;90553.00;;;14.19;44.19
9935;BME280;5006;41.828;23.478;2023-02-19T04:20:13;90547.63;;;15.09;43.00
9935;BME280;5006;41.828;23.478;2023-02-19T04:21:18;90539.28;;;14.70;43.46
9935;BME280;5006;41.828;23.478;2023-02-19T04:22:25;90540.44;;;14.99;43.31
9935;BME280;5006;41.828;23.478;2023-02-19T04:23:34;90533.78;;;15.56;42.14
9935;BME280;5006;41.828;23.478;2023-02-19T04:24:43;90537.16;;;14.55;43.15
9935;BME280;5006;41.828;23.478;2023-02-19T04:25:54;90539.50;;;15.39;42.05
9935;BME280;5006;41.828;23.478;2023-02-19T04:27:01;90539.31;;;14.97;42.31
9935;BME280;5006;41.828;23.478;2023-02-19T04:28:08;90541.53;;;15.31;42.29
9935;BME280;5006;41.828;23.478;2023-02-19T04:29:14;90532.16;;;15.62;41.67
9935;BME280;5006;41.828;23.478;2023-02-19T04:30:19;90534.97;;;15.03;42.34
9935;BME280;5006;41.828;23.478;2023-02-19T04:31:25;90542.59;;;15.37;41.76
9935;BME280;5006;41.828;23.478;2023-02-19T04:32:33;90536.22;;;15.24;41.83
9935;BME280;5006;41.828;23.478;2023-02-19T04:33:38;90540.78;;;14.75;42.04
9935;BME280;5006;41.828;23.478;2023-02-19T04:34:44;90547.22;;;15.86;40.79
9935;BME280;5006;41.828;23.478;2023-02-19T04:35:50;90544.63;;;15.04;41.93
9935;BME280;5006;41.828;23.478;2023-02-19T04:36:55;90549.72;;;15.24;41.95
9935;BME280;5006;41.828;23.478;2023-02-19T04:38:00;90550.31;;;15.39;41.18
9935;BME280;5006;41.828;23.478;2023-02-19T04:39:05;90556.38;;;15.46;41.43
9935;BME280;5006;41.828;23.478;2023-02-19T04:40:12;90555.63;;;15.92;40.96
9935;BME280;5006;41.828;23.478;2023-02-19T04:41:16;90549.22;;;15.59;40.47
9935;BME280;5006;41.828;23.478;2023-02-19T04:42:22;90557.44;;;15.75;40.75
9935;BME280;5006;41.828;23.478;2023-02-19T04:43:27;90553.09;;;15.58;41.18
9935;BME280;5006;41.828;23.478;2023-02-19T04:44:32;90550.09;;;15.99;40.50
9935;BME280;5006;41.828;23.478;2023-02-19T04:45:38;90551.22;;;15.78;40.91
9935;BME280;5006;41.828;23.478;2023-02-19T04:46:43;90555.13;;;15.24;41.55
9935;BME280;5006;41.828;23.478;2023-02-19T04:47:48;90547.53;;;15.42;41.32
9935;BME280;5006;41.828;23.478;2023-02-19T04:48:54;90543.09;;;15.78;40.98
9935;BME280;5006;41.828;23.478;2023-02-19T04:50:00;90541.00;;;15.13;41.78
9935;BME280;5006;41.828;23.478;2023-02-19T04:51:06;90542.75;;;15.53;41.15
9935;BME280;5006;41.828;23.478;2023-02-19T04:52:11;90542.38;;;15.51;41.18
9935;BME280;5006;41.828;23.478;2023-02-19T04:53:16;90550.66;;;15.64;40.71
9935;BME280;5006;41.828;23.478;2023-02-19T04:54:21;90538.91;;;15.74;40.90
9935;BME280;5006;41.828;23.478;2023-02-19T04:55:27;90538.97;;;15.93;40.54
9935;BME280;5006;41.828;23.478;2023-02-19T04:56:31;90535.53;;;15.93;40.20
9935;BME280;5006;41.828;23.478;2023-02-19T04:57:37;90541.72;;;15.44;39.98
9935;BME280;5006;41.828;23.478;2023-02-19T04:58:42;90535.13;;;16.14;39.75
9935;BME280;5006;41.828;23.478;2023-02-19T04:59:48;90543.03;;;15.82;39.62
9935;BME280;5006;41.828;23.478;2023-02-19T05:00:53;90534.19;;;16.01;39.38
9935;BME280;5006;41.828;23.478;2023-02-19T05:01:58;90532.97;;;16.05;39.07
9935;BME280;5006;41.828;23.478;2023-02-19T05:03:03;90534.03;;;16.11;38.49
9935;BME280;5006;41.828;23.478;2023-02-19T05:04:08;90536.19;;;16.20;38.76
9935;BME280;5006;41.828;23.478;2023-02-19T05:05:16;90534.78;;;16.54;37.91
9935;BME280;5006;41.828;23.478;2023-02-19T05:06:20;90538.53;;;17.15;37.60
9935;BME280;5006;41.828;23.478;2023-02-19T05:07:26;90533.88;;;16.41;37.93
9935;BME280;5006;41.828;23.478;2023-02-19T05:08:31;90531.75;;;16.29;37.89
9935;BME280;5006;41.828;23.478;2023-02-19T05:09:36;90531.00;;;17.07;37.69
9935;BME280;5006;41.828;23.478;2023-02-19T05:10:41;90537.41;;;16.77;37.51
9935;BME280;5006;41.828;23.478;2023-02-19T05:11:47;90532.88;;;17.77;36.78
9935;BME280;5006;41.828;23.478;2023-02-19T05:12:53;90530.34;;;17.19;37.19
9935;BME280;5006;41.828;23.478;2023-02-19T05:13:59;90535.81;;;16.80;37.86
9935;BME280;5006;41.828;23.478;2023-02-19T05:15:05;90529.03;;;16.29;38.08
9935;BME280;5006;41.828;23.478;2023-02-19T05:16:12;90540.78;;;17.36;37.03
9935;BME280;5006;41.828;23.478;2023-02-19T05:17:19;90535.41;;;18.16;36.27
9935;BME280;5006;41.828;23.478;2023-02-19T05:18:25;90540.84;;;17.52;37.05
9935;BME280;5006;41.828;23.478;2023-02-19T05:19:30;90542.09;;;17.48;37.62
9935;BME280;5006;41.828;23.478;2023-02-19T05:20:37;90533.63;;;17.46;37.55
9935;BME280;5006;41.828;23.478;2023-02-19T05:21:42;90545.66;;;17.45;37.70
9935;BME280;5006;41.828;23.478;2023-02-19T05:22:47;90549.81;;;17.81;37.15
9935;BME280;5006;41.828;23.478;2023-02-19T05:23:52;90554.47;;;18.28;36.70
9935;BME280;5006;41.828;23.478;2023-02-19T05:24:58;90558.09;;;17.42;36.56
9935;BME280;5006;41.828;23.478;2023-02-19T05:26:07;90554.41;;;17.52;36.57
9935;BME280;5006;41.828;23.478;2023-02-19T05:27:13;90556.69;;;16.99;37.00
9935;BME280;5006;41.828;23.478;2023-02-19T05:28:18;90562.81;;;17.73;36.52
9935;BME280;5006;41.828;23.478;2023-02-19T05:29:24;90567.09;;;17.39;36.62
9935;BME280;5006;41.828;23.478;2023-02-19T05:30:28;90565.31;;;17.48;36.79
9935;BME280;5006;41.828;23.478;2023-02-19T05:31:34;90568.91;;;17.61;36.72
9935;BME280;5006;41.828;23.478;2023-02-19T05:32:39;90569.69;;;17.78;36.45
9935;BME280;5006;41.828;23.478;2023-02-19T05:33:45;90571.94;;;16.93;37.88
9935;BME280;5006;41.828;23.478;2023-02-19T05:34:55;90576.84;;;17.52;37.19
9935;BME280;5006;41.828;23.478;2023-02-19T05:36:04;90581.50;;;17.52;37.03
9935;BME280;5006;41.828;23.478;2023-02-19T05:37:10;90575.94;;;16.46;38.59
9935;BME280;5006;41.828;23.478;2023-02-19T05:38:16;90574.56;;;16.34;38.92
9935;BME280;5006;41.828;23.478;2023-02-19T05:39:21;90583.31;;;16.22;38.85
9935;BME280;5006;41.828;23.478;2023-02-19T05:40:27;90581.59;;;16.55;38.58
9935;BME280;5006;41.828;23.478;2023-02-19T05:41:32;90592.31;;;17.17;37.80
9935;BME280;5006;41.828;23.478;2023-02-19T05:42:37;90586.34;;;17.25;37.64
9935;BME280;5006;41.828;23.478;2023-02-19T05:43:43;90591.09;;;17.56;37.24
9935;BME280;5006;41.828;23.478;2023-02-19T05:44:49;90592.72;;;16.80;37.92
9935;BME280;5006;41.828;23.478;2023-02-19T05:45:57;90590.13;;;16.07;38.90
9935;BME280;5006;41.828;23.478;2023-02-19T05:47:02;90590.97;;;16.04;39.13
9935;BME280;5006;41.828;23.478;2023-02-19T05:48:09;90590.66;;;16.22;38.84
9935;BME280;5006;41.828;23.478;2023-02-19T05:49:14;90593.91;;;15.90;39.16
9935;BME280;5006;41.828;23.478;2023-02-19T05:50:20;90598.34;;;16.46;38.52
9935;BME280;5006;41.828;23.478;2023-02-19T05:51:26;90600.56;;;16.74;37.81
9935;BME280;5006;41.828;23.478;2023-02-19T05:52:32;90603.63;;;17.31;37.29
9935;BME280;5006;41.828;23.478;2023-02-19T05:53:37;90604.25;;;17.74;37.18
9935;BME280;5006;41.828;23.478;2023-02-19T05:54:42;90609.91;;;18.75;36.17
9935;BME280;5006;41.828;23.478;2023-02-19T05:55:48;90609.94;;;18.43;36.29
9935;BME280;5006;41.828;23.478;2023-02-19T05:56:53;90623.00;;;18.16;36.34
9935;BME280;5006;41.828;23.478;2023-02-19T05:57:59;90607.22;;;18.43;36.00
9935;BME280;5006;41.828;23.478;2023-02-19T05:59:06;90611.41;;;17.29;37.00
9935;BME280;5006;41.828;23.478;2023-02-19T06:00:15;90604.88;;;16.49;38.02
9935;BME280;5006;41.828;23.478;2023-02-19T06:01:21;90617.56;;;16.94;37.85
9935;BME280;5006;41.828;23.478;2023-02-19T06:02:27;90606.94;;;15.46;39.02
9935;BME280;5006;41.828;23.478;2023-02-19T06:03:32;90604.78;;;16.75;37.85
9935;BME280;5006;41.828;23.478;2023-02-19T06:04:38;90611.72;;;16.57;38.13
9935;BME280;5006;41.828;23.478;2023-02-19T06:05:42;90620.47;;;15.95;38.37
9935;BME280;5006;41.828;23.478;2023-02-19T06:06:49;90618.09;;;16.66;38.14
9935;BME280;5006;41.828;23.478;2023-02-19T06:07:54;90621.63;;;16.44;37.95
9935;BME280;5006;41.828;23.478;2023-02-19T06:09:00;90634.22;;;17.51;37.37
9935;BME280;5006;41.828;23.478;2023-02-19T06:10:05;90633.59;;;17.79;37.69
9935;BME280;5006;41.828;23.478;2023-02-19T06:11:11;90632.91;;;18.71;36.44
9935;BME280;5006;41.828;23.478;2023-02-19T06:12:16;90631.75;;;17.92;36.77
9935;BME280;5006;41.828;23.478;2023-02-19T06:13:22;90639.25;;;18.52;35.86